sensor_id;sensor_type;location;lat;lon;timestamp;temperature;humidity
29203;DHT22;16245;51.170;4.884;2022-12-29T00:02:16;12.30;99.90
29203;DHT22;16245;51.170;4.884;2022-12-29T00:04:42;12.20;99.90
29203;DHT22;16245;51.170;4.884;2022-12-29T00:07:07;12.20;99.90
29203;DHT22;16245;51.170;4.884;2022-12-29T00:09:34;12.20;99.90
29203;DHT22;16245;51.170;4.884;2022-12-29T00:12:00;12.10;99.90
29203;DHT22;16245;51.170;4.884;2022-12-29T00:14:26;12.10;99.90
29203;DHT22;16245;51.170;4.884;2022-12-29T00:17:11;12.00;99.90
29203;DHT22;16245;51.170;4.884;2022-12-29T00:19:36;12.00;99.90
29203;DHT22;16245;51.170;4.884;2022-12-29T00:22:21;12.00;99.90
29203;DHT22;16245;51.170;4.884;2022-12-29T00:25:07;12.00;99.90
29203;DHT22;16245;51.170;4.884;2022-12-29T00:27:52;12.00;99.90
29203;DHT22;16245;51.170;4.884;2022-12-29T00:30:36;12.00;99.90
29203;DHT22;16245;51.170;4.884;2022-12-29T00:33:24;12.00;99.90
29203;DHT22;16245;51.170;4.884;2022-12-29T00:36:16;12.00;99.90
29203;DHT22;16245;51.170;4.884;2022-12-29T00:38:48;12.10;99.90
29203;DHT22;16245;51.170;4.884;2022-12-29T00:41:33;12.10;99.90
29203;DHT22;16245;51.170;4.884;2022-12-29T00:44:17;12.20;99.90
29203;DHT22;16245;51.170;4.884;2022-12-29T00:46:43;12.20;99.90
29203;DHT22;16245;51.170;4.884;2022-12-29T00:49:11;12.20;99.90
29203;DHT22;16245;51.170;4.884;2022-12-29T00:51:57;12.30;99.90
29203;DHT22;16245;51.170;4.884;2022-12-29T00:54:23;12.30;99.90
29203;DHT22;16245;51.170;4.884;2022-12-29T00:56:52;12.20;99.90
29203;DHT22;16245;51.170;4.884;2022-12-29T00:59:18;12.20;99.90
29203;DHT22;16245;51.170;4.884;2022-12-29T01:01:45;12.20;99.90
29203;DHT22;16245;51.170;4.884;2022-12-29T01:04:11;12.20;99.90
29203;DHT22;16245;51.170;4.884;2022-12-29T01:06:38;12.20;99.90
29203;DHT22;16245;51.170;4.884;2022-12-29T01:09:05;12.30;99.90
29203;DHT22;16245;51.170;4.884;2022-12-29T01:11:49;12.30;99.90
29203;DHT22;16245;51.170;4.884;2022-12-29T01:14:16;12.30;99.90
29203;DHT22;16245;51.170;4.884;2022-12-29T01:16:42;12.30;99.90
29203;DHT22;16245;51.170;4.884;2022-12-29T01:19:08;12.30;99.90
29203;DHT22;16245;51.170;4.884;2022-12-29T01:21:34;12.40;99.90
29203;DHT22;16245;51.170;4.884;2022-12-29T01:23:59;12.40;99.90
29203;DHT22;16245;51.170;4.884;2022-12-29T01:26:25;12.30;99.90
29203;DHT22;16245;51.170;4.884;2022-12-29T01:28:51;12.40;99.90
29203;DHT22;16245;51.170;4.884;2022-12-29T01:31:16;12.40;99.90
29203;DHT22;16245;51.170;4.884;2022-12-29T01:33:43;12.40;99.90
29203;DHT22;16245;51.170;4.884;2022-12-29T01:36:11;12.40;99.90
29203;DHT22;16245;51.170;4.884;2022-12-29T01:38:38;12.40;99.90
29203;DHT22;16245;51.170;4.884;2022-12-29T01:41:05;12.40;99.90
29203;DHT22;16245;51.170;4.884;2022-12-29T01:43:49;12.40;99.90
29203;DHT22;16245;51.170;4.884;2022-12-29T01:48:57;12.30;99.90
29203;DHT22;16245;51.170;4.884;2022-12-29T01:51:25;12.30;99.90
29203;DHT22;16245;51.170;4.884;2022-12-29T01:53:53;12.20;99.90
29203;DHT22;16245;51.170;4.884;2022-12-29T01:56:19;12.20;99.90
29203;DHT22;16245;51.170;4.884;2022-12-29T01:58:49;12.30;99.90
29203;DHT22;16245;51.170;4.884;2022-12-29T02:01:19;12.30;99.90
29203;DHT22;16245;51.170;4.884;2022-12-29T02:03:45;12.30;99.90
29203;DHT22;16245;51.170;4.884;2022-12-29T02:06:27;12.30;99.90
29203;DHT22;16245;51.170;4.884;2022-12-29T02:08:55;12.30;99.90
29203;DHT22;16245;51.170;4.884;2022-12-29T02:11:23;12.20;99.90
29203;DHT22;16245;51.170;4.884;2022-12-29T02:13:49;12.20;99.90
29203;DHT22;16245;51.170;4.884;2022-12-29T02:16:25;12.10;99.90
29203;DHT22;16245;51.170;4.884;2022-12-29T02:22:09;12.00;99.90
29203;DHT22;16245;51.170;4.884;2022-12-29T02:36:29;12.00;99.90
29203;DHT22;16245;51.170;4.884;2022-12-29T02:44:55;12.00;99.90
29203;DHT22;16245;51.170;4.884;2022-12-29T02:50:07;11.90;99.90
29203;DHT22;16245;51.170;4.884;2022-12-29T02:52:38;11.90;99.90
29203;DHT22;16245;51.170;4.884;2022-12-29T02:55:05;11.80;99.90
29203;DHT22;16245;51.170;4.884;2022-12-29T02:57:34;11.70;99.90
29203;DHT22;16245;51.170;4.884;2022-12-29T03:00:11;11.60;99.90
29203;DHT22;16245;51.170;4.884;2022-12-29T03:11:12;11.20;99.90
29203;DHT22;16245;51.170;4.884;2022-12-29T03:14:25;11.20;99.90
29203;DHT22;16245;51.170;4.884;2022-12-29T03:20:08;11.10;99.90
29203;DHT22;16245;51.170;4.884;2022-12-29T03:22:41;11.10;99.90
29203;DHT22;16245;51.170;4.884;2022-12-29T03:27:55;11.10;99.90
29203;DHT22;16245;51.170;4.884;2022-12-29T03:30:23;11.10;99.90
29203;DHT22;16245;51.170;4.884;2022-12-29T03:32:53;11.10;99.90
29203;DHT22;16245;51.170;4.884;2022-12-29T03:35:21;11.10;99.90
29203;DHT22;16245;51.170;4.884;2022-12-29T03:38:27;11.10;99.90
29203;DHT22;16245;51.170;4.884;2022-12-29T03:40:57;11.00;99.90
29203;DHT22;16245;51.170;4.884;2022-12-29T03:43:23;10.90;99.90
29203;DHT22;16245;51.170;4.884;2022-12-29T03:45:50;11.00;99.90
29203;DHT22;16245;51.170;4.884;2022-12-29T03:48:15;10.90;99.90
29203;DHT22;16245;51.170;4.884;2022-12-29T03:50:41;10.90;99.90
29203;DHT22;16245;51.170;4.884;2022-12-29T03:53:07;10.80;99.90
29203;DHT22;16245;51.170;4.884;2022-12-29T03:55:32;10.80;99.90
29203;DHT22;16245;51.170;4.884;2022-12-29T03:57:58;10.80;99.90
29203;DHT22;16245;51.170;4.884;2022-12-29T04:00:24;10.80;99.90
29203;DHT22;16245;51.170;4.884;2022-12-29T04:02:49;10.80;99.90
29203;DHT22;16245;51.170;4.884;2022-12-29T04:05:15;10.80;99.90
29203;DHT22;16245;51.170;4.884;2022-12-29T04:07:41;10.80;99.90
29203;DHT22;16245;51.170;4.884;2022-12-29T04:10:07;10.80;99.90
29203;DHT22;16245;51.170;4.884;2022-12-29T04:12:32;11.00;99.90
29203;DHT22;16245;51.170;4.884;2022-12-29T04:15:01;11.00;99.90
29203;DHT22;16245;51.170;4.884;2022-12-29T04:17:38;11.00;99.90
29203;DHT22;16245;51.170;4.884;2022-12-29T04:20:05;11.00;99.90
29203;DHT22;16245;51.170;4.884;2022-12-29T04:22:56;11.00;99.90
29203;DHT22;16245;51.170;4.884;2022-12-29T04:25:22;11.00;99.90
29203;DHT22;16245;51.170;4.884;2022-12-29T04:27:48;11.00;99.90
29203;DHT22;16245;51.170;4.884;2022-12-29T04:30:14;11.00;99.90
29203;DHT22;16245;51.170;4.884;2022-12-29T04:32:39;11.00;99.90
29203;DHT22;16245;51.170;4.884;2022-12-29T04:35:05;10.90;99.90
29203;DHT22;16245;51.170;4.884;2022-12-29T04:37:31;10.90;99.90
29203;DHT22;16245;51.170;4.884;2022-12-29T04:39:56;10.90;99.90
29203;DHT22;16245;51.170;4.884;2022-12-29T04:42:22;10.90;99.90
29203;DHT22;16245;51.170;4.884;2022-12-29T04:44:48;10.90;99.90
29203;DHT22;16245;51.170;4.884;2022-12-29T04:47:13;10.80;99.90
29203;DHT22;16245;51.170;4.884;2022-12-29T04:49:39;10.80;99.90
29203;DHT22;16245;51.170;4.884;2022-12-29T04:52:05;10.80;99.90
29203;DHT22;16245;51.170;4.884;2022-12-29T04:54:30;10.80;99.90
29203;DHT22;16245;51.170;4.884;2022-12-29T04:56:56;10.80;99.90
29203;DHT22;16245;51.170;4.884;2022-12-29T04:59:24;10.80;99.90
29203;DHT22;16245;51.170;4.884;2022-12-29T05:01:50;10.90;99.90
29203;DHT22;16245;51.170;4.884;2022-12-29T05:04:15;10.90;99.90
29203;DHT22;16245;51.170;4.884;2022-12-29T05:06:41;11.00;99.90
29203;DHT22;16245;51.170;4.884;2022-12-29T05:09:07;11.00;99.90
29203;DHT22;16245;51.170;4.884;2022-12-29T05:11:32;11.10;99.90
29203;DHT22;16245;51.170;4.884;2022-12-29T05:13:58;11.10;99.90
29203;DHT22;16245;51.170;4.884;2022-12-29T05:16:24;11.10;99.90
29203;DHT22;16245;51.170;4.884;2022-12-29T05:18:49;11.10;99.90
29203;DHT22;16245;51.170;4.884;2022-12-29T05:21:15;11.20;99.90
29203;DHT22;16245;51.170;4.884;2022-12-29T05:23:40;11.20;99.90
29203;DHT22;16245;51.170;4.884;2022-12-29T05:26:06;11.10;99.90
29203;DHT22;16245;51.170;4.884;2022-12-29T05:28:32;11.10;99.90
29203;DHT22;16245;51.170;4.884;2022-12-29T05:30:58;11.10;99.90
29203;DHT22;16245;51.170;4.884;2022-12-29T05:33:23;11.20;99.90
29203;DHT22;16245;51.170;4.884;2022-12-29T05:35:49;11.20;99.90
29203;DHT22;16245;51.170;4.884;2022-12-29T05:38:15;11.20;99.90
29203;DHT22;16245;51.170;4.884;2022-12-29T05:40:40;11.20;99.90
29203;DHT22;16245;51.170;4.884;2022-12-29T05:43:06;11.20;99.90
29203;DHT22;16245;51.170;4.884;2022-12-29T05:45:32;11.30;99.90
29203;DHT22;16245;51.170;4.884;2022-12-29T05:47:57;11.30;99.90
29203;DHT22;16245;51.170;4.884;2022-12-29T05:50:23;11.30;99.90
29203;DHT22;16245;51.170;4.884;2022-12-29T05:52:48;11.30;99.90
29203;DHT22;16245;51.170;4.884;2022-12-29T05:55:14;11.30;99.90
29203;DHT22;16245;51.170;4.884;2022-12-29T05:57:40;11.30;99.90
29203;DHT22;16245;51.170;4.884;2022-12-29T06:00:06;11.30;99.90
29203;DHT22;16245;51.170;4.884;2022-12-29T06:02:32;11.20;99.90
29203;DHT22;16245;51.170;4.884;2022-12-29T06:04:58;11.30;99.90
29203;DHT22;16245;51.170;4.884;2022-12-29T06:07:23;11.40;99.90
29203;DHT22;16245;51.170;4.884;2022-12-29T06:09:49;11.40;99.90
29203;DHT22;16245;51.170;4.884;2022-12-29T06:12:15;11.50;99.90
29203;DHT22;16245;51.170;4.884;2022-12-29T06:14:41;11.40;99.90
29203;DHT22;16245;51.170;4.884;2022-12-29T06:17:07;11.50;99.90
29203;DHT22;16245;51.170;4.884;2022-12-29T06:19:33;11.40;99.90
29203;DHT22;16245;51.170;4.884;2022-12-29T06:21:58;11.50;99.90
29203;DHT22;16245;51.170;4.884;2022-12-29T06:24:24;11.40;99.90
29203;DHT22;16245;51.170;4.884;2022-12-29T06:26:50;11.40;99.90
29203;DHT22;16245;51.170;4.884;2022-12-29T06:29:15;11.40;99.90
29203;DHT22;16245;51.170;4.884;2022-12-29T06:31:45;11.40;99.90
29203;DHT22;16245;51.170;4.884;2022-12-29T06:34:11;11.40;99.90
29203;DHT22;16245;51.170;4.884;2022-12-29T06:36:37;11.30;99.90
29203;DHT22;16245;51.170;4.884;2022-12-29T06:39:03;11.30;99.90
29203;DHT22;16245;51.170;4.884;2022-12-29T06:41:32;11.30;99.90
29203;DHT22;16245;51.170;4.884;2022-12-29T06:43:58;11.30;99.90
29203;DHT22;16245;51.170;4.884;2022-12-29T06:46:24;11.30;99.90
29203;DHT22;16245;51.170;4.884;2022-12-29T06:48:49;11.30;99.90
29203;DHT22;16245;51.170;4.884;2022-12-29T06:51:15;11.30;99.90
29203;DHT22;16245;51.170;4.884;2022-12-29T06:53:41;11.20;99.90
29203;DHT22;16245;51.170;4.884;2022-12-29T06:56:07;11.20;99.90
29203;DHT22;16245;51.170;4.884;2022-12-29T06:58:33;11.10;99.90
29203;DHT22;16245;51.170;4.884;2022-12-29T07:00:59;11.10;99.90
29203;DHT22;16245;51.170;4.884;2022-12-29T07:03:25;11.10;99.90
29203;DHT22;16245;51.170;4.884;2022-12-29T07:05:51;11.20;99.90
29203;DHT22;16245;51.170;4.884;2022-12-29T07:08:16;11.20;99.90
29203;DHT22;16245;51.170;4.884;2022-12-29T07:10:42;11.20;99.90
29203;DHT22;16245;51.170;4.884;2022-12-29T07:13:08;11.20;99.90
29203;DHT22;16245;51.170;4.884;2022-12-29T07:15:35;11.20;99.90
29203;DHT22;16245;51.170;4.884;2022-12-29T07:18:01;11.20;99.90
29203;DHT22;16245;51.170;4.884;2022-12-29T07:20:26;11.20;99.90
29203;DHT22;16245;51.170;4.884;2022-12-29T07:22:52;11.20;99.90
29203;DHT22;16245;51.170;4.884;2022-12-29T07:25:18;11.30;99.90
29203;DHT22;16245;51.170;4.884;2022-12-29T07:27:43;11.30;99.90
29203;DHT22;16245;51.170;4.884;2022-12-29T07:30:09;11.30;99.90
29203;DHT22;16245;51.170;4.884;2022-12-29T07:32:35;11.20;99.90
29203;DHT22;16245;51.170;4.884;2022-12-29T07:35:01;11.20;99.90
29203;DHT22;16245;51.170;4.884;2022-12-29T07:37:27;11.20;99.90
29203;DHT22;16245;51.170;4.884;2022-12-29T07:39:53;11.20;99.90
29203;DHT22;16245;51.170;4.884;2022-12-29T07:42:18;11.20;99.90
29203;DHT22;16245;51.170;4.884;2022-12-29T07:44:44;11.10;99.90
29203;DHT22;16245;51.170;4.884;2022-12-29T07:47:09;11.10;99.90
29203;DHT22;16245;51.170;4.884;2022-12-29T07:49:35;11.20;99.90
29203;DHT22;16245;51.170;4.884;2022-12-29T07:52:01;11.20;99.90
29203;DHT22;16245;51.170;4.884;2022-12-29T07:54:26;11.20;99.90
29203;DHT22;16245;51.170;4.884;2022-12-29T07:56:52;11.20;99.90
29203;DHT22;16245;51.170;4.884;2022-12-29T07:59:18;11.30;99.90
29203;DHT22;16245;51.170;4.884;2022-12-29T08:01:44;11.30;99.90
29203;DHT22;16245;51.170;4.884;2022-12-29T08:04:10;11.30;99.90
29203;DHT22;16245;51.170;4.884;2022-12-29T08:06:36;11.20;99.90
29203;DHT22;16245;51.170;4.884;2022-12-29T08:09:03;11.30;99.90
29203;DHT22;16245;51.170;4.884;2022-12-29T08:11:28;11.30;99.90
29203;DHT22;16245;51.170;4.884;2022-12-29T08:13:54;11.40;99.90
29203;DHT22;16245;51.170;4.884;2022-12-29T08:16:20;11.40;99.90
29203;DHT22;16245;51.170;4.884;2022-12-29T08:18:45;11.40;99.90
29203;DHT22;16245;51.170;4.884;2022-12-29T08:21:12;11.40;99.90
29203;DHT22;16245;51.170;4.884;2022-12-29T08:23:38;11.40;99.90
29203;DHT22;16245;51.170;4.884;2022-12-29T08:26:05;11.40;99.90
29203;DHT22;16245;51.170;4.884;2022-12-29T08:28:32;11.40;99.90
29203;DHT22;16245;51.170;4.884;2022-12-29T08:30:59;11.40;99.90
29203;DHT22;16245;51.170;4.884;2022-12-29T08:33:26;11.40;99.90
29203;DHT22;16245;51.170;4.884;2022-12-29T08:35:52;11.40;99.90
29203;DHT22;16245;51.170;4.884;2022-12-29T08:38:17;11.40;99.90
29203;DHT22;16245;51.170;4.884;2022-12-29T08:40:43;11.50;99.90
29203;DHT22;16245;51.170;4.884;2022-12-29T08:43:09;11.40;99.90
29203;DHT22;16245;51.170;4.884;2022-12-29T08:45:35;11.30;99.90
29203;DHT22;16245;51.170;4.884;2022-12-29T08:48:01;11.40;99.90
29203;DHT22;16245;51.170;4.884;2022-12-29T08:50:26;11.30;99.90
29203;DHT22;16245;51.170;4.884;2022-12-29T08:52:52;11.30;99.90
29203;DHT22;16245;51.170;4.884;2022-12-29T08:55:18;11.30;99.90
29203;DHT22;16245;51.170;4.884;2022-12-29T08:57:43;11.30;99.90
29203;DHT22;16245;51.170;4.884;2022-12-29T09:00:10;11.30;99.90
29203;DHT22;16245;51.170;4.884;2022-12-29T09:02:36;11.30;99.90
29203;DHT22;16245;51.170;4.884;2022-12-29T09:05:02;11.30;99.90
29203;DHT22;16245;51.170;4.884;2022-12-29T09:07:28;11.30;99.90
29203;DHT22;16245;51.170;4.884;2022-12-29T09:09:53;11.40;99.90
29203;DHT22;16245;51.170;4.884;2022-12-29T09:12:19;11.40;99.90
29203;DHT22;16245;51.170;4.884;2022-12-29T09:14:46;11.40;99.90
29203;DHT22;16245;51.170;4.884;2022-12-29T09:17:12;11.40;99.90
29203;DHT22;16245;51.170;4.884;2022-12-29T09:19:56;11.30;99.90
29203;DHT22;16245;51.170;4.884;2022-12-29T09:22:22;11.30;99.90
29203;DHT22;16245;51.170;4.884;2022-12-29T09:24:48;11.20;99.90
29203;DHT22;16245;51.170;4.884;2022-12-29T09:27:13;11.10;99.90
29203;DHT22;16245;51.170;4.884;2022-12-29T09:29:39;11.00;99.90
29203;DHT22;16245;51.170;4.884;2022-12-29T09:32:05;11.10;99.90
29203;DHT22;16245;51.170;4.884;2022-12-29T09:34:30;11.20;99.90
29203;DHT22;16245;51.170;4.884;2022-12-29T09:36:56;11.00;99.90
29203;DHT22;16245;51.170;4.884;2022-12-29T09:39:22;11.00;99.90
29203;DHT22;16245;51.170;4.884;2022-12-29T09:47:23;10.90;99.90
29203;DHT22;16245;51.170;4.884;2022-12-29T09:50:05;10.80;99.90
29203;DHT22;16245;51.170;4.884;2022-12-29T09:55:33;10.70;99.90
29203;DHT22;16245;51.170;4.884;2022-12-29T09:58:09;10.70;99.90
29203;DHT22;16245;51.170;4.884;2022-12-29T10:03:19;10.80;99.90
29203;DHT22;16245;51.170;4.884;2022-12-29T10:10:56;10.80;99.90
29203;DHT22;16245;51.170;4.884;2022-12-29T10:16:07;10.80;99.90
29203;DHT22;16245;51.170;4.884;2022-12-29T10:19:05;10.70;99.90
29203;DHT22;16245;51.170;4.884;2022-12-29T10:24:20;10.70;99.90
29203;DHT22;16245;51.170;4.884;2022-12-29T10:26:48;10.70;99.90
29203;DHT22;16245;51.170;4.884;2022-12-29T10:29:20;10.70;99.90
29203;DHT22;16245;51.170;4.884;2022-12-29T10:31:55;10.70;99.90
29203;DHT22;16245;51.170;4.884;2022-12-29T10:34:51;10.70;99.90
29203;DHT22;16245;51.170;4.884;2022-12-29T10:39:54;10.80;99.90
29203;DHT22;16245;51.170;4.884;2022-12-29T10:42:29;10.90;99.90
29203;DHT22;16245;51.170;4.884;2022-12-29T10:44:59;10.80;99.90
29203;DHT22;16245;51.170;4.884;2022-12-29T10:47:32;10.80;99.90
29203;DHT22;16245;51.170;4.884;2022-12-29T10:50:00;10.80;99.90
29203;DHT22;16245;51.170;4.884;2022-12-29T10:52:28;10.80;99.90
29203;DHT22;16245;51.170;4.884;2022-12-29T10:57:35;10.90;99.90
29203;DHT22;16245;51.170;4.884;2022-12-29T11:00:08;11.00;99.90
29203;DHT22;16245;51.170;4.884;2022-12-29T11:07:48;11.00;99.90
29203;DHT22;16245;51.170;4.884;2022-12-29T11:10:21;11.10;99.90
29203;DHT22;16245;51.170;4.884;2022-12-29T11:13:04;11.20;99.90
29203;DHT22;16245;51.170;4.884;2022-12-29T11:15:44;11.40;99.90
29203;DHT22;16245;51.170;4.884;2022-12-29T11:18:34;11.40;99.90
29203;DHT22;16245;51.170;4.884;2022-12-29T11:21:04;11.40;99.90
29203;DHT22;16245;51.170;4.884;2022-12-29T11:23:40;11.40;99.90
29203;DHT22;16245;51.170;4.884;2022-12-29T11:28:39;11.60;99.90
29203;DHT22;16245;51.170;4.884;2022-12-29T11:31:06;11.60;99.90
29203;DHT22;16245;51.170;4.884;2022-12-29T11:33:37;11.60;99.90
29203;DHT22;16245;51.170;4.884;2022-12-29T11:36:23;11.70;99.90
29203;DHT22;16245;51.170;4.884;2022-12-29T11:38:51;11.70;99.90
29203;DHT22;16245;51.170;4.884;2022-12-29T11:41:29;11.70;99.90
29203;DHT22;16245;51.170;4.884;2022-12-29T11:43:58;11.60;99.90
29203;DHT22;16245;51.170;4.884;2022-12-29T11:46:31;11.60;99.90
29203;DHT22;16245;51.170;4.884;2022-12-29T11:48:58;11.60;99.90
29203;DHT22;16245;51.170;4.884;2022-12-29T11:51:46;11.60;99.90
29203;DHT22;16245;51.170;4.884;2022-12-29T11:56:49;11.60;99.90
29203;DHT22;16245;51.170;4.884;2022-12-29T12:02:02;11.70;99.90
29203;DHT22;16245;51.170;4.884;2022-12-29T12:04:35;11.80;99.90
29203;DHT22;16245;51.170;4.884;2022-12-29T12:07:12;11.70;99.90
29203;DHT22;16245;51.170;4.884;2022-12-29T12:09:45;11.70;99.90
29203;DHT22;16245;51.170;4.884;2022-12-29T12:12:27;11.70;99.90
29203;DHT22;16245;51.170;4.884;2022-12-29T12:14:56;11.60;99.90
29203;DHT22;16245;51.170;4.884;2022-12-29T12:17:37;11.50;99.90
29203;DHT22;16245;51.170;4.884;2022-12-29T12:20:19;11.50;99.90
29203;DHT22;16245;51.170;4.884;2022-12-29T12:25:57;11.50;99.90
29203;DHT22;16245;51.170;4.884;2022-12-29T12:31:02;11.30;99.90
29203;DHT22;16245;51.170;4.884;2022-12-29T12:33:36;11.40;99.90
29203;DHT22;16245;51.170;4.884;2022-12-29T12:36:32;11.40;99.90
29203;DHT22;16245;51.170;4.884;2022-12-29T12:39:31;11.40;99.90
29203;DHT22;16245;51.170;4.884;2022-12-29T12:43:39;11.50;99.90
29203;DHT22;16245;51.170;4.884;2022-12-29T12:48:33;11.30;99.90
29203;DHT22;16245;51.170;4.884;2022-12-29T12:53:49;11.30;99.90
29203;DHT22;16245;51.170;4.884;2022-12-29T13:07:21;11.30;99.90
29203;DHT22;16245;51.170;4.884;2022-12-29T13:10:02;11.20;99.90
29203;DHT22;16245;51.170;4.884;2022-12-29T13:12:50;11.20;99.90
29203;DHT22;16245;51.170;4.884;2022-12-29T13:15:44;11.00;99.90
29203;DHT22;16245;51.170;4.884;2022-12-29T13:18:25;10.90;99.90
29203;DHT22;16245;51.170;4.884;2022-12-29T13:21:11;10.80;99.90
29203;DHT22;16245;51.170;4.884;2022-12-29T13:23:41;10.80;99.90
29203;DHT22;16245;51.170;4.884;2022-12-29T13:26:13;10.90;99.90
29203;DHT22;16245;51.170;4.884;2022-12-29T13:34:25;10.90;99.90
29203;DHT22;16245;51.170;4.884;2022-12-29T13:36:59;11.00;99.90
29203;DHT22;16245;51.170;4.884;2022-12-29T13:39:33;11.00;99.90
29203;DHT22;16245;51.170;4.884;2022-12-29T13:42:01;10.90;99.90
29203;DHT22;16245;51.170;4.884;2022-12-29T13:44:41;11.00;99.90
29203;DHT22;16245;51.170;4.884;2022-12-29T13:49:53;11.10;99.90
29203;DHT22;16245;51.170;4.884;2022-12-29T13:52:55;11.00;99.90
29203;DHT22;16245;51.170;4.884;2022-12-29T14:01:58;10.80;99.90
29203;DHT22;16245;51.170;4.884;2022-12-29T14:04:27;10.90;99.90
29203;DHT22;16245;51.170;4.884;2022-12-29T14:07:04;10.90;99.90
29203;DHT22;16245;51.170;4.884;2022-12-29T14:15:19;11.00;99.90
29203;DHT22;16245;51.170;4.884;2022-12-29T14:18:04;11.00;99.90
29203;DHT22;16245;51.170;4.884;2022-12-29T14:20:31;10.90;99.90
29203;DHT22;16245;51.170;4.884;2022-12-29T14:23:14;10.90;99.90
29203;DHT22;16245;51.170;4.884;2022-12-29T14:28:52;11.00;99.90
29203;DHT22;16245;51.170;4.884;2022-12-29T14:39:38;10.80;99.90
29203;DHT22;16245;51.170;4.884;2022-12-29T14:47:37;10.20;99.90
29203;DHT22;16245;51.170;4.884;2022-12-29T14:52:56;9.90;99.90
29203;DHT22;16245;51.170;4.884;2022-12-29T14:55:30;9.90;99.90
29203;DHT22;16245;51.170;4.884;2022-12-29T14:58:02;9.80;99.90
29203;DHT22;16245;51.170;4.884;2022-12-29T15:00:33;9.70;99.90
29203;DHT22;16245;51.170;4.884;2022-12-29T15:03:29;9.60;99.90
29203;DHT22;16245;51.170;4.884;2022-12-29T15:06:06;9.50;99.90
29203;DHT22;16245;51.170;4.884;2022-12-29T15:08:37;9.40;99.90
29203;DHT22;16245;51.170;4.884;2022-12-29T15:11:12;9.30;99.90
29203;DHT22;16245;51.170;4.884;2022-12-29T15:13:41;9.20;99.90
29203;DHT22;16245;51.170;4.884;2022-12-29T15:16:33;9.20;99.90
29203;DHT22;16245;51.170;4.884;2022-12-29T15:19:21;9.20;99.90
29203;DHT22;16245;51.170;4.884;2022-12-29T15:21:47;9.10;99.90
29203;DHT22;16245;51.170;4.884;2022-12-29T15:24:15;9.10;99.90
29203;DHT22;16245;51.170;4.884;2022-12-29T15:26:49;9.10;99.90
29203;DHT22;16245;51.170;4.884;2022-12-29T15:29:42;9.10;99.90
29203;DHT22;16245;51.170;4.884;2022-12-29T15:32:23;9.10;99.90
29203;DHT22;16245;51.170;4.884;2022-12-29T15:34:55;9.10;99.90
29203;DHT22;16245;51.170;4.884;2022-12-29T15:37:24;9.10;99.90
29203;DHT22;16245;51.170;4.884;2022-12-29T15:39:51;9.00;99.90
29203;DHT22;16245;51.170;4.884;2022-12-29T15:42:46;9.10;99.90
29203;DHT22;16245;51.170;4.884;2022-12-29T15:45:15;9.10;99.90
29203;DHT22;16245;51.170;4.884;2022-12-29T15:47:44;9.10;99.90
29203;DHT22;16245;51.170;4.884;2022-12-29T15:50:28;9.00;99.90
29203;DHT22;16245;51.170;4.884;2022-12-29T15:52:55;9.00;99.90
29203;DHT22;16245;51.170;4.884;2022-12-29T15:55:33;9.00;99.90
29203;DHT22;16245;51.170;4.884;2022-12-29T15:58:01;9.00;99.90
29203;DHT22;16245;51.170;4.884;2022-12-29T16:00:33;9.00;99.90
29203;DHT22;16245;51.170;4.884;2022-12-29T16:03:01;9.00;99.90
29203;DHT22;16245;51.170;4.884;2022-12-29T16:05:38;9.00;99.90
29203;DHT22;16245;51.170;4.884;2022-12-29T16:08:24;9.00;99.90
29203;DHT22;16245;51.170;4.884;2022-12-29T16:10:50;9.00;99.90
29203;DHT22;16245;51.170;4.884;2022-12-29T16:13:40;9.00;99.90
29203;DHT22;16245;51.170;4.884;2022-12-29T16:16:16;9.00;99.90
29203;DHT22;16245;51.170;4.884;2022-12-29T16:18:44;9.00;99.90
29203;DHT22;16245;51.170;4.884;2022-12-29T16:21:20;9.00;99.90
29203;DHT22;16245;51.170;4.884;2022-12-29T16:23:50;9.00;99.90
29203;DHT22;16245;51.170;4.884;2022-12-29T16:26:18;9.00;99.90
29203;DHT22;16245;51.170;4.884;2022-12-29T16:28:50;9.00;99.90
29203;DHT22;16245;51.170;4.884;2022-12-29T16:31:23;9.10;99.90
29203;DHT22;16245;51.170;4.884;2022-12-29T16:33:51;9.10;99.90
29203;DHT22;16245;51.170;4.884;2022-12-29T16:36:38;9.10;99.90
29203;DHT22;16245;51.170;4.884;2022-12-29T16:39:35;8.90;99.90
29203;DHT22;16245;51.170;4.884;2022-12-29T16:48:17;8.80;99.90
29203;DHT22;16245;51.170;4.884;2022-12-29T16:50:44;8.80;99.90
29203;DHT22;16245;51.170;4.884;2022-12-29T16:53:24;8.90;99.90
29203;DHT22;16245;51.170;4.884;2022-12-29T16:55:53;8.90;99.90
29203;DHT22;16245;51.170;4.884;2022-12-29T16:58:22;8.80;99.90
29203;DHT22;16245;51.170;4.884;2022-12-29T17:00:48;8.80;99.90
29203;DHT22;16245;51.170;4.884;2022-12-29T17:03:15;8.80;99.90
29203;DHT22;16245;51.170;4.884;2022-12-29T17:05:41;8.80;99.90
29203;DHT22;16245;51.170;4.884;2022-12-29T17:08:20;8.80;99.90
29203;DHT22;16245;51.170;4.884;2022-12-29T17:10:55;8.70;99.90
29203;DHT22;16245;51.170;4.884;2022-12-29T17:13:40;8.70;99.90
29203;DHT22;16245;51.170;4.884;2022-12-29T17:16:07;8.80;99.90
29203;DHT22;16245;51.170;4.884;2022-12-29T17:18:35;8.70;99.90
29203;DHT22;16245;51.170;4.884;2022-12-29T17:21:01;8.80;99.90
29203;DHT22;16245;51.170;4.884;2022-12-29T17:23:26;8.80;99.90
29203;DHT22;16245;51.170;4.884;2022-12-29T17:25:54;8.70;99.90
29203;DHT22;16245;51.170;4.884;2022-12-29T17:28:20;8.80;99.90
29203;DHT22;16245;51.170;4.884;2022-12-29T17:30:47;8.70;99.90
29203;DHT22;16245;51.170;4.884;2022-12-29T17:33:17;8.60;99.90
29203;DHT22;16245;51.170;4.884;2022-12-29T17:35:44;8.60;99.90
29203;DHT22;16245;51.170;4.884;2022-12-29T17:38:24;8.60;99.90
29203;DHT22;16245;51.170;4.884;2022-12-29T17:40:52;8.70;99.90
29203;DHT22;16245;51.170;4.884;2022-12-29T17:43:18;8.80;99.90
29203;DHT22;16245;51.170;4.884;2022-12-29T17:45:48;8.80;99.90
29203;DHT22;16245;51.170;4.884;2022-12-29T17:48:16;8.80;99.90
29203;DHT22;16245;51.170;4.884;2022-12-29T17:50:43;8.80;99.90
29203;DHT22;16245;51.170;4.884;2022-12-29T17:53:15;8.80;99.90
29203;DHT22;16245;51.170;4.884;2022-12-29T17:55:41;8.80;99.90
29203;DHT22;16245;51.170;4.884;2022-12-29T17:58:27;8.80;99.90
29203;DHT22;16245;51.170;4.884;2022-12-29T18:00:56;8.80;99.90
29203;DHT22;16245;51.170;4.884;2022-12-29T18:03:37;8.70;99.90
29203;DHT22;16245;51.170;4.884;2022-12-29T18:06:04;8.70;99.90
29203;DHT22;16245;51.170;4.884;2022-12-29T18:08:34;8.70;99.90
29203;DHT22;16245;51.170;4.884;2022-12-29T18:11:00;8.60;99.90
29203;DHT22;16245;51.170;4.884;2022-12-29T18:13:29;8.70;99.90
29203;DHT22;16245;51.170;4.884;2022-12-29T18:15:55;8.70;99.90
29203;DHT22;16245;51.170;4.884;2022-12-29T18:18:23;8.70;99.90
29203;DHT22;16245;51.170;4.884;2022-12-29T18:20:51;8.60;99.90
29203;DHT22;16245;51.170;4.884;2022-12-29T18:23:25;8.60;99.90
29203;DHT22;16245;51.170;4.884;2022-12-29T18:26:03;8.70;99.90
29203;DHT22;16245;51.170;4.884;2022-12-29T18:28:29;8.60;99.90